Terminal Aerodrome Forecast
Issued by NWS

Home | Current Version | Previous Version | Text Only | Print | Product List | Glossary On
Versions: 1 2 3 4 5 6 7 8 9 10 11 12 13 14 15 16 17 18 19 20 21 22 23 24
000
FTUS44 KLZK 211700
TAFHOT
TAF
KHOT 211725Z 2118/2218 13006KT P6SM BKN050
     FM220100 13006KT P6SM SCT040 BKN060
     FM220900 15007KT P6SM SCT012 OVC040
      TEMPO 2210/2214 5SM BR BKN012
     FM221500 16008KT P6SM VCSH OVC012=

USA.gov is the U.S. government's official web portal to all federal, state and local government web resources and services.